sensor_id;sensor_type;location;lat;lon;timestamp;P1;durP1;ratioP1;P2;durP2;ratioP2
59907;SDS011;61804;54.926;73.496;2023-05-07T00:00:50;13.38;;;7.32;;
59907;SDS011;61804;54.926;73.496;2023-05-07T00:03:18;35.80;;;12.48;;
59907;SDS011;61804;54.926;73.496;2023-05-07T00:05:48;55.22;;;11.75;;
59907;SDS011;61804;54.926;73.496;2023-05-07T00:08:16;21.95;;;9.38;;
59907;SDS011;61804;54.926;73.496;2023-05-07T00:10:47;20.42;;;11.18;;
59907;SDS011;61804;54.926;73.496;2023-05-07T00:13:15;27.98;;;12.20;;
59907;SDS011;61804;54.926;73.496;2023-05-07T00:15:42;30.30;;;10.10;;
59907;SDS011;61804;54.926;73.496;2023-05-07T00:18:10;15.85;;;6.93;;
59907;SDS011;61804;54.926;73.496;2023-05-07T00:20:37;28.00;;;12.05;;
59907;SDS011;61804;54.926;73.496;2023-05-07T00:23:05;6.68;;;5.78;;
59907;SDS011;61804;54.926;73.496;2023-05-07T00:25:33;17.38;;;6.65;;
59907;SDS011;61804;54.926;73.496;2023-05-07T00:28:01;8.43;;;7.00;;
59907;SDS011;61804;54.926;73.496;2023-05-07T00:30:30;11.18;;;6.13;;
59907;SDS011;61804;54.926;73.496;2023-05-07T00:33:06;9.05;;;6.82;;
59907;SDS011;61804;54.926;73.496;2023-05-07T00:35:34;11.40;;;5.20;;
59907;SDS011;61804;54.926;73.496;2023-05-07T00:38:02;7.07;;;5.22;;
59907;SDS011;61804;54.926;73.496;2023-05-07T00:40:30;8.57;;;5.47;;
59907;SDS011;61804;54.926;73.496;2023-05-07T00:43:01;9.25;;;5.35;;
59907;SDS011;61804;54.926;73.496;2023-05-07T00:45:29;9.73;;;5.60;;
59907;SDS011;61804;54.926;73.496;2023-05-07T00:47:58;8.77;;;6.63;;
59907;SDS011;61804;54.926;73.496;2023-05-07T00:50:26;10.23;;;6.82;;
59907;SDS011;61804;54.926;73.496;2023-05-07T00:52:54;17.00;;;5.60;;
59907;SDS011;61804;54.926;73.496;2023-05-07T00:55:23;11.68;;;6.30;;
59907;SDS011;61804;54.926;73.496;2023-05-07T00:57:53;13.13;;;6.45;;
59907;SDS011;61804;54.926;73.496;2023-05-07T01:00:21;13.25;;;6.85;;
59907;SDS011;61804;54.926;73.496;2023-05-07T01:02:48;8.60;;;7.72;;
59907;SDS011;61804;54.926;73.496;2023-05-07T01:05:17;11.70;;;6.60;;
59907;SDS011;61804;54.926;73.496;2023-05-07T01:07:45;17.20;;;7.25;;
59907;SDS011;61804;54.926;73.496;2023-05-07T01:10:13;15.27;;;6.72;;
59907;SDS011;61804;54.926;73.496;2023-05-07T01:12:44;11.88;;;6.55;;
59907;SDS011;61804;54.926;73.496;2023-05-07T01:15:12;8.73;;;6.32;;
59907;SDS011;61804;54.926;73.496;2023-05-07T01:17:40;13.85;;;7.05;;
59907;SDS011;61804;54.926;73.496;2023-05-07T01:20:13;13.73;;;6.00;;
59907;SDS011;61804;54.926;73.496;2023-05-07T01:22:45;11.52;;;6.45;;
59907;SDS011;61804;54.926;73.496;2023-05-07T01:25:13;13.20;;;6.30;;
59907;SDS011;61804;54.926;73.496;2023-05-07T01:27:47;8.90;;;6.00;;
59907;SDS011;61804;54.926;73.496;2023-05-07T01:30:14;15.00;;;6.40;;
59907;SDS011;61804;54.926;73.496;2023-05-07T01:32:51;17.08;;;7.40;;
59907;SDS011;61804;54.926;73.496;2023-05-07T01:35:20;43.92;;;10.60;;
59907;SDS011;61804;54.926;73.496;2023-05-07T01:37:49;8.98;;;6.20;;
59907;SDS011;61804;54.926;73.496;2023-05-07T01:40:16;17.88;;;6.18;;
59907;SDS011;61804;54.926;73.496;2023-05-07T01:42:45;12.43;;;6.57;;
59907;SDS011;61804;54.926;73.496;2023-05-07T01:45:13;16.58;;;6.50;;
59907;SDS011;61804;54.926;73.496;2023-05-07T01:47:41;14.82;;;6.78;;
59907;SDS011;61804;54.926;73.496;2023-05-07T01:50:10;28.58;;;6.10;;
59907;SDS011;61804;54.926;73.496;2023-05-07T01:53:02;13.00;;;5.57;;
59907;SDS011;61804;54.926;73.496;2023-05-07T01:55:42;9.07;;;4.70;;
59907;SDS011;61804;54.926;73.496;2023-05-07T01:58:12;21.63;;;4.85;;
59907;SDS011;61804;54.926;73.496;2023-05-07T02:00:39;7.13;;;4.38;;
59907;SDS011;61804;54.926;73.496;2023-05-07T02:03:08;8.50;;;4.20;;
59907;SDS011;61804;54.926;73.496;2023-05-07T02:06:09;4.72;;;3.22;;
59907;SDS011;61804;54.926;73.496;2023-05-07T02:09:01;11.05;;;3.90;;
59907;SDS011;61804;54.926;73.496;2023-05-07T02:11:41;30.77;;;5.43;;
59907;SDS011;61804;54.926;73.496;2023-05-07T02:14:10;12.80;;;3.95;;
59907;SDS011;61804;54.926;73.496;2023-05-07T02:16:37;4.97;;;3.78;;
59907;SDS011;61804;54.926;73.496;2023-05-07T02:19:05;11.27;;;4.50;;
59907;SDS011;61804;54.926;73.496;2023-05-07T02:21:33;8.23;;;4.88;;
59907;SDS011;61804;54.926;73.496;2023-05-07T02:24:00;10.18;;;5.28;;
59907;SDS011;61804;54.926;73.496;2023-05-07T02:26:28;3.00;;;2.70;;
59907;SDS011;61804;54.926;73.496;2023-05-07T02:28:55;6.35;;;3.72;;
59907;SDS011;61804;54.926;73.496;2023-05-07T02:31:24;12.18;;;3.60;;
59907;SDS011;61804;54.926;73.496;2023-05-07T02:33:51;20.52;;;4.07;;
59907;SDS011;61804;54.926;73.496;2023-05-07T02:36:20;4.72;;;2.60;;
59907;SDS011;61804;54.926;73.496;2023-05-07T02:38:54;18.30;;;9.35;;
59907;SDS011;61804;54.926;73.496;2023-05-07T02:41:22;12.95;;;3.65;;
59907;SDS011;61804;54.926;73.496;2023-05-07T02:43:49;12.35;;;3.42;;
59907;SDS011;61804;54.926;73.496;2023-05-07T02:46:17;3.88;;;2.58;;
59907;SDS011;61804;54.926;73.496;2023-05-07T02:49:13;7.40;;;3.13;;
59907;SDS011;61804;54.926;73.496;2023-05-07T02:51:43;4.30;;;2.55;;
59907;SDS011;61804;54.926;73.496;2023-05-07T02:54:17;11.35;;;3.33;;
59907;SDS011;61804;54.926;73.496;2023-05-07T02:56:44;4.30;;;2.88;;
59907;SDS011;61804;54.926;73.496;2023-05-07T02:59:12;4.50;;;3.13;;
59907;SDS011;61804;54.926;73.496;2023-05-07T03:01:41;23.40;;;4.93;;
59907;SDS011;61804;54.926;73.496;2023-05-07T03:04:12;14.77;;;4.28;;
59907;SDS011;61804;54.926;73.496;2023-05-07T03:06:40;10.88;;;3.35;;
59907;SDS011;61804;54.926;73.496;2023-05-07T03:09:11;5.57;;;2.88;;
59907;SDS011;61804;54.926;73.496;2023-05-07T03:11:47;5.75;;;4.03;;
59907;SDS011;61804;54.926;73.496;2023-05-07T03:14:15;4.45;;;3.03;;
59907;SDS011;61804;54.926;73.496;2023-05-07T03:16:43;8.02;;;3.63;;
59907;SDS011;61804;54.926;73.496;2023-05-07T03:19:10;11.25;;;3.05;;
59907;SDS011;61804;54.926;73.496;2023-05-07T03:21:44;8.93;;;3.90;;
59907;SDS011;61804;54.926;73.496;2023-05-07T03:24:12;17.48;;;3.95;;
59907;SDS011;61804;54.926;73.496;2023-05-07T03:26:40;8.70;;;3.60;;
59907;SDS011;61804;54.926;73.496;2023-05-07T03:29:10;8.40;;;2.92;;
59907;SDS011;61804;54.926;73.496;2023-05-07T03:31:37;6.82;;;2.88;;
59907;SDS011;61804;54.926;73.496;2023-05-07T03:34:06;18.23;;;3.95;;
59907;SDS011;61804;54.926;73.496;2023-05-07T03:36:33;6.20;;;3.50;;
59907;SDS011;61804;54.926;73.496;2023-05-07T03:39:01;20.42;;;5.97;;
59907;SDS011;61804;54.926;73.496;2023-05-07T03:41:36;7.68;;;4.25;;
59907;SDS011;61804;54.926;73.496;2023-05-07T03:44:03;52.78;;;35.80;;
59907;SDS011;61804;54.926;73.496;2023-05-07T03:46:31;13.45;;;10.40;;
59907;SDS011;61804;54.926;73.496;2023-05-07T03:49:00;6.78;;;4.15;;
59907;SDS011;61804;54.926;73.496;2023-05-07T03:51:29;6.82;;;3.03;;
59907;SDS011;61804;54.926;73.496;2023-05-07T03:53:57;4.75;;;3.00;;
59907;SDS011;61804;54.926;73.496;2023-05-07T03:56:27;8.32;;;3.03;;
59907;SDS011;61804;54.926;73.496;2023-05-07T03:58:56;12.52;;;4.30;;
59907;SDS011;61804;54.926;73.496;2023-05-07T04:01:23;8.48;;;2.88;;
59907;SDS011;61804;54.926;73.496;2023-05-07T04:03:51;10.73;;;4.47;;
59907;SDS011;61804;54.926;73.496;2023-05-07T04:06:19;8.18;;;3.30;;
59907;SDS011;61804;54.926;73.496;2023-05-07T04:08:50;6.43;;;3.75;;
59907;SDS011;61804;54.926;73.496;2023-05-07T04:11:18;8.32;;;2.75;;
59907;SDS011;61804;54.926;73.496;2023-05-07T04:13:48;5.00;;;3.53;;
59907;SDS011;61804;54.926;73.496;2023-05-07T04:16:20;4.45;;;2.72;;
59907;SDS011;61804;54.926;73.496;2023-05-07T04:18:47;4.88;;;4.15;;
59907;SDS011;61804;54.926;73.496;2023-05-07T04:21:15;11.05;;;2.70;;
59907;SDS011;61804;54.926;73.496;2023-05-07T04:23:44;10.32;;;4.15;;
59907;SDS011;61804;54.926;73.496;2023-05-07T04:26:13;7.53;;;2.33;;
59907;SDS011;61804;54.926;73.496;2023-05-07T04:28:44;14.15;;;3.97;;
59907;SDS011;61804;54.926;73.496;2023-05-07T04:31:12;4.03;;;3.00;;
59907;SDS011;61804;54.926;73.496;2023-05-07T04:33:42;12.27;;;3.58;;
59907;SDS011;61804;54.926;73.496;2023-05-07T04:36:12;4.90;;;2.58;;
59907;SDS011;61804;54.926;73.496;2023-05-07T04:38:48;6.45;;;2.47;;
59907;SDS011;61804;54.926;73.496;2023-05-07T04:41:17;5.47;;;2.95;;
59907;SDS011;61804;54.926;73.496;2023-05-07T04:43:45;12.93;;;3.60;;
59907;SDS011;61804;54.926;73.496;2023-05-07T04:46:16;3.97;;;2.80;;
59907;SDS011;61804;54.926;73.496;2023-05-07T04:48:46;4.15;;;2.78;;
59907;SDS011;61804;54.926;73.496;2023-05-07T04:51:13;7.03;;;3.35;;
59907;SDS011;61804;54.926;73.496;2023-05-07T04:53:41;5.38;;;2.65;;
59907;SDS011;61804;54.926;73.496;2023-05-07T04:56:13;8.15;;;3.65;;
59907;SDS011;61804;54.926;73.496;2023-05-07T04:58:44;8.40;;;5.68;;
59907;SDS011;61804;54.926;73.496;2023-05-07T05:01:13;6.18;;;2.50;;
59907;SDS011;61804;54.926;73.496;2023-05-07T05:03:43;12.00;;;2.78;;
59907;SDS011;61804;54.926;73.496;2023-05-07T05:06:11;5.05;;;2.90;;
59907;SDS011;61804;54.926;73.496;2023-05-07T05:08:39;45.05;;;9.52;;
59907;SDS011;61804;54.926;73.496;2023-05-07T05:11:07;7.68;;;3.63;;
59907;SDS011;61804;54.926;73.496;2023-05-07T05:13:36;9.13;;;4.03;;
59907;SDS011;61804;54.926;73.496;2023-05-07T05:16:18;5.22;;;2.88;;
59907;SDS011;61804;54.926;73.496;2023-05-07T05:18:46;18.30;;;8.30;;
59907;SDS011;61804;54.926;73.496;2023-05-07T05:21:16;8.15;;;2.97;;
59907;SDS011;61804;54.926;73.496;2023-05-07T05:23:47;7.55;;;3.15;;
59907;SDS011;61804;54.926;73.496;2023-05-07T05:26:19;3.63;;;2.63;;
59907;SDS011;61804;54.926;73.496;2023-05-07T05:28:48;9.48;;;2.35;;
59907;SDS011;61804;54.926;73.496;2023-05-07T05:31:17;2.58;;;2.40;;
59907;SDS011;61804;54.926;73.496;2023-05-07T05:33:44;25.20;;;4.38;;
59907;SDS011;61804;54.926;73.496;2023-05-07T05:36:12;9.02;;;4.90;;
59907;SDS011;61804;54.926;73.496;2023-05-07T05:38:40;8.52;;;4.00;;
59907;SDS011;61804;54.926;73.496;2023-05-07T05:41:09;7.28;;;4.22;;
59907;SDS011;61804;54.926;73.496;2023-05-07T05:43:37;11.25;;;3.35;;
59907;SDS011;61804;54.926;73.496;2023-05-07T05:46:05;5.05;;;2.78;;
59907;SDS011;61804;54.926;73.496;2023-05-07T05:48:34;7.78;;;3.67;;
59907;SDS011;61804;54.926;73.496;2023-05-07T05:51:03;3.38;;;2.38;;
59907;SDS011;61804;54.926;73.496;2023-05-07T05:53:31;22.85;;;4.82;;
59907;SDS011;61804;54.926;73.496;2023-05-07T05:56:01;5.72;;;3.28;;
59907;SDS011;61804;54.926;73.496;2023-05-07T05:58:30;24.58;;;4.55;;
59907;SDS011;61804;54.926;73.496;2023-05-07T06:01:02;3.42;;;2.55;;
59907;SDS011;61804;54.926;73.496;2023-05-07T06:03:31;7.85;;;3.30;;
59907;SDS011;61804;54.926;73.496;2023-05-07T06:06:03;8.77;;;3.42;;
59907;SDS011;61804;54.926;73.496;2023-05-07T06:08:31;19.00;;;4.60;;
59907;SDS011;61804;54.926;73.496;2023-05-07T06:10:59;22.70;;;4.45;;
59907;SDS011;61804;54.926;73.496;2023-05-07T06:13:31;14.95;;;4.07;;
59907;SDS011;61804;54.926;73.496;2023-05-07T06:15:59;12.15;;;3.75;;
59907;SDS011;61804;54.926;73.496;2023-05-07T06:18:26;9.85;;;3.75;;
59907;SDS011;61804;54.926;73.496;2023-05-07T06:20:54;14.00;;;4.38;;
59907;SDS011;61804;54.926;73.496;2023-05-07T06:23:26;75.82;;;11.75;;
59907;SDS011;61804;54.926;73.496;2023-05-07T06:25:53;9.15;;;3.47;;
59907;SDS011;61804;54.926;73.496;2023-05-07T06:28:25;4.43;;;2.35;;
59907;SDS011;61804;54.926;73.496;2023-05-07T06:30:52;20.08;;;2.55;;
59907;SDS011;61804;54.926;73.496;2023-05-07T06:33:20;9.32;;;3.53;;
59907;SDS011;61804;54.926;73.496;2023-05-07T06:35:48;7.88;;;2.78;;
59907;SDS011;61804;54.926;73.496;2023-05-07T06:38:16;5.72;;;2.15;;
59907;SDS011;61804;54.926;73.496;2023-05-07T06:40:47;9.23;;;3.33;;
59907;SDS011;61804;54.926;73.496;2023-05-07T06:43:15;15.15;;;4.30;;
59907;SDS011;61804;54.926;73.496;2023-05-07T06:45:48;20.48;;;4.03;;
59907;SDS011;61804;54.926;73.496;2023-05-07T06:48:16;6.20;;;2.05;;
59907;SDS011;61804;54.926;73.496;2023-05-07T06:50:52;4.72;;;2.58;;
59907;SDS011;61804;54.926;73.496;2023-05-07T06:53:19;12.88;;;3.30;;
59907;SDS011;61804;54.926;73.496;2023-05-07T06:55:47;14.05;;;4.82;;
59907;SDS011;61804;54.926;73.496;2023-05-07T06:58:17;9.25;;;4.25;;
59907;SDS011;61804;54.926;73.496;2023-05-07T07:00:44;26.35;;;5.30;;
59907;SDS011;61804;54.926;73.496;2023-05-07T07:03:12;15.93;;;7.20;;
59907;SDS011;61804;54.926;73.496;2023-05-07T07:05:41;11.07;;;4.10;;
59907;SDS011;61804;54.926;73.496;2023-05-07T07:08:09;19.63;;;3.08;;
59907;SDS011;61804;54.926;73.496;2023-05-07T07:10:37;3.60;;;2.15;;
59907;SDS011;61804;54.926;73.496;2023-05-07T07:13:05;7.30;;;3.45;;
59907;SDS011;61804;54.926;73.496;2023-05-07T07:15:33;5.90;;;2.50;;
59907;SDS011;61804;54.926;73.496;2023-05-07T07:18:01;8.48;;;2.63;;
59907;SDS011;61804;54.926;73.496;2023-05-07T07:20:29;3.58;;;2.08;;
59907;SDS011;61804;54.926;73.496;2023-05-07T07:22:57;4.75;;;2.53;;
59907;SDS011;61804;54.926;73.496;2023-05-07T07:25:24;12.43;;;3.33;;
59907;SDS011;61804;54.926;73.496;2023-05-07T07:27:53;22.98;;;3.17;;
59907;SDS011;61804;54.926;73.496;2023-05-07T07:30:23;2.00;;;1.63;;
59907;SDS011;61804;54.926;73.496;2023-05-07T07:32:50;9.43;;;3.10;;
59907;SDS011;61804;54.926;73.496;2023-05-07T07:35:21;2.88;;;1.45;;
59907;SDS011;61804;54.926;73.496;2023-05-07T07:37:49;3.65;;;2.10;;
59907;SDS011;61804;54.926;73.496;2023-05-07T07:40:18;4.60;;;3.22;;
59907;SDS011;61804;54.926;73.496;2023-05-07T07:42:49;3.78;;;1.80;;
59907;SDS011;61804;54.926;73.496;2023-05-07T07:45:16;5.20;;;3.15;;
59907;SDS011;61804;54.926;73.496;2023-05-07T07:47:47;5.80;;;2.88;;
59907;SDS011;61804;54.926;73.496;2023-05-07T07:50:15;2.20;;;1.73;;
59907;SDS011;61804;54.926;73.496;2023-05-07T07:52:42;12.02;;;3.78;;
59907;SDS011;61804;54.926;73.496;2023-05-07T07:55:12;8.70;;;1.75;;
59907;SDS011;61804;54.926;73.496;2023-05-07T07:57:41;5.88;;;2.58;;
59907;SDS011;61804;54.926;73.496;2023-05-07T08:00:09;5.50;;;1.70;;
59907;SDS011;61804;54.926;73.496;2023-05-07T08:02:43;7.45;;;2.70;;
59907;SDS011;61804;54.926;73.496;2023-05-07T08:05:18;11.32;;;3.15;;
59907;SDS011;61804;54.926;73.496;2023-05-07T08:07:48;5.70;;;2.72;;
59907;SDS011;61804;54.926;73.496;2023-05-07T08:10:25;8.48;;;2.75;;
59907;SDS011;61804;54.926;73.496;2023-05-07T08:13:08;8.15;;;3.33;;
59907;SDS011;61804;54.926;73.496;2023-05-07T08:15:39;12.77;;;3.35;;
59907;SDS011;61804;54.926;73.496;2023-05-07T08:18:08;8.00;;;2.65;;
59907;SDS011;61804;54.926;73.496;2023-05-07T08:20:36;3.70;;;1.90;;
59907;SDS011;61804;54.926;73.496;2023-05-07T08:23:09;5.53;;;3.60;;
59907;SDS011;61804;54.926;73.496;2023-05-07T08:25:39;7.38;;;2.67;;
59907;SDS011;61804;54.926;73.496;2023-05-07T08:28:08;6.90;;;2.50;;
59907;SDS011;61804;54.926;73.496;2023-05-07T08:30:36;4.28;;;2.65;;
59907;SDS011;61804;54.926;73.496;2023-05-07T08:33:05;17.85;;;3.05;;
59907;SDS011;61804;54.926;73.496;2023-05-07T08:35:33;2.20;;;2.00;;
59907;SDS011;61804;54.926;73.496;2023-05-07T08:38:00;4.20;;;2.40;;
59907;SDS011;61804;54.926;73.496;2023-05-07T08:40:29;4.57;;;1.98;;
59907;SDS011;61804;54.926;73.496;2023-05-07T08:43:00;9.90;;;3.25;;
59907;SDS011;61804;54.926;73.496;2023-05-07T08:45:29;6.80;;;2.55;;
59907;SDS011;61804;54.926;73.496;2023-05-07T08:48:05;4.10;;;2.72;;
59907;SDS011;61804;54.926;73.496;2023-05-07T08:50:36;7.95;;;3.00;;
59907;SDS011;61804;54.926;73.496;2023-05-07T08:53:04;19.35;;;8.38;;
59907;SDS011;61804;54.926;73.496;2023-05-07T08:55:32;6.25;;;3.05;;
59907;SDS011;61804;54.926;73.496;2023-05-07T08:58:00;10.57;;;2.72;;
59907;SDS011;61804;54.926;73.496;2023-05-07T09:00:29;9.70;;;2.45;;
59907;SDS011;61804;54.926;73.496;2023-05-07T09:03:00;22.20;;;5.70;;
59907;SDS011;61804;54.926;73.496;2023-05-07T09:05:28;14.60;;;4.32;;
59907;SDS011;61804;54.926;73.496;2023-05-07T09:07:58;4.55;;;2.38;;
59907;SDS011;61804;54.926;73.496;2023-05-07T09:10:26;13.93;;;2.35;;
59907;SDS011;61804;54.926;73.496;2023-05-07T09:12:59;5.45;;;2.42;;
59907;SDS011;61804;54.926;73.496;2023-05-07T09:15:28;6.22;;;2.47;;
59907;SDS011;61804;54.926;73.496;2023-05-07T09:18:00;8.52;;;2.30;;
59907;SDS011;61804;54.926;73.496;2023-05-07T09:20:33;11.55;;;4.22;;
59907;SDS011;61804;54.926;73.496;2023-05-07T09:23:05;4.57;;;2.55;;
59907;SDS011;61804;54.926;73.496;2023-05-07T09:25:34;8.85;;;2.33;;
59907;SDS011;61804;54.926;73.496;2023-05-07T09:28:10;6.68;;;2.30;;
59907;SDS011;61804;54.926;73.496;2023-05-07T09:30:39;7.22;;;2.92;;
59907;SDS011;61804;54.926;73.496;2023-05-07T09:33:11;9.73;;;4.10;;
59907;SDS011;61804;54.926;73.496;2023-05-07T09:35:42;5.03;;;4.30;;
59907;SDS011;61804;54.926;73.496;2023-05-07T09:38:15;3.85;;;2.38;;
59907;SDS011;61804;54.926;73.496;2023-05-07T09:40:45;5.00;;;2.70;;
59907;SDS011;61804;54.926;73.496;2023-05-07T09:43:22;5.45;;;3.80;;
59907;SDS011;61804;54.926;73.496;2023-05-07T09:45:55;4.55;;;2.75;;
59907;SDS011;61804;54.926;73.496;2023-05-07T09:48:26;4.65;;;2.30;;
59907;SDS011;61804;54.926;73.496;2023-05-07T09:50:55;8.57;;;3.10;;
59907;SDS011;61804;54.926;73.496;2023-05-07T09:53:30;9.40;;;2.70;;
59907;SDS011;61804;54.926;73.496;2023-05-07T09:56:01;5.72;;;3.10;;
59907;SDS011;61804;54.926;73.496;2023-05-07T09:58:32;3.85;;;2.17;;
59907;SDS011;61804;54.926;73.496;2023-05-07T10:01:01;3.97;;;2.10;;
59907;SDS011;61804;54.926;73.496;2023-05-07T10:03:30;37.03;;;6.82;;
59907;SDS011;61804;54.926;73.496;2023-05-07T10:06:04;17.10;;;4.25;;
59907;SDS011;61804;54.926;73.496;2023-05-07T10:08:33;6.18;;;3.25;;
59907;SDS011;61804;54.926;73.496;2023-05-07T10:11:03;4.60;;;1.88;;
59907;SDS011;61804;54.926;73.496;2023-05-07T10:13:32;6.40;;;3.88;;
59907;SDS011;61804;54.926;73.496;2023-05-07T10:16:04;10.93;;;3.53;;
59907;SDS011;61804;54.926;73.496;2023-05-07T10:18:40;2.67;;;2.20;;
59907;SDS011;61804;54.926;73.496;2023-05-07T10:23:43;49.47;;;7.43;;
59907;SDS011;61804;54.926;73.496;2023-05-07T10:26:12;9.52;;;4.88;;
59907;SDS011;61804;54.926;73.496;2023-05-07T10:28:42;21.40;;;5.43;;
59907;SDS011;61804;54.926;73.496;2023-05-07T10:33:58;11.05;;;3.75;;
59907;SDS011;61804;54.926;73.496;2023-05-07T10:36:27;5.50;;;2.38;;
59907;SDS011;61804;54.926;73.496;2023-05-07T10:38:55;27.42;;;5.28;;
59907;SDS011;61804;54.926;73.496;2023-05-07T10:41:23;19.13;;;3.47;;
59907;SDS011;61804;54.926;73.496;2023-05-07T10:44:01;4.25;;;2.47;;
59907;SDS011;61804;54.926;73.496;2023-05-07T10:47:08;10.55;;;2.70;;
59907;SDS011;61804;54.926;73.496;2023-05-07T10:50:20;7.65;;;2.58;;
59907;SDS011;61804;54.926;73.496;2023-05-07T10:52:31;8.60;;;2.92;;
59907;SDS011;61804;54.926;73.496;2023-05-07T10:55:25;4.38;;;2.42;;
59907;SDS011;61804;54.926;73.496;2023-05-07T11:00:57;7.85;;;2.92;;
59907;SDS011;61804;54.926;73.496;2023-05-07T11:03:30;7.13;;;3.13;;
59907;SDS011;61804;54.926;73.496;2023-05-07T11:06:10;6.70;;;2.58;;
59907;SDS011;61804;54.926;73.496;2023-05-07T11:11:16;13.02;;;4.10;;
59907;SDS011;61804;54.926;73.496;2023-05-07T11:13:49;21.20;;;12.93;;
59907;SDS011;61804;54.926;73.496;2023-05-07T11:16:42;44.17;;;36.90;;
59907;SDS011;61804;54.926;73.496;2023-05-07T11:19:36;84.18;;;69.70;;
59907;SDS011;61804;54.926;73.496;2023-05-07T11:22:23;81.25;;;62.35;;
59907;SDS011;61804;54.926;73.496;2023-05-07T11:25:05;18.98;;;5.68;;
59907;SDS011;61804;54.926;73.496;2023-05-07T11:27:33;11.55;;;3.50;;
59907;SDS011;61804;54.926;73.496;2023-05-07T11:30:01;23.90;;;15.73;;
59907;SDS011;61804;54.926;73.496;2023-05-07T11:32:30;4.63;;;3.88;;
59907;SDS011;61804;54.926;73.496;2023-05-07T11:34:59;59.35;;;50.40;;
59907;SDS011;61804;54.926;73.496;2023-05-07T11:37:27;62.80;;;56.17;;
59907;SDS011;61804;54.926;73.496;2023-05-07T11:40:03;4.75;;;3.17;;
59907;SDS011;61804;54.926;73.496;2023-05-07T11:42:36;19.00;;;4.32;;
59907;SDS011;61804;54.926;73.496;2023-05-07T11:45:06;7.05;;;3.53;;
59907;SDS011;61804;54.926;73.496;2023-05-07T11:47:34;17.58;;;4.13;;
59907;SDS011;61804;54.926;73.496;2023-05-07T11:50:05;7.15;;;2.83;;
59907;SDS011;61804;54.926;73.496;2023-05-07T11:52:35;13.55;;;3.67;;
59907;SDS011;61804;54.926;73.496;2023-05-07T11:55:03;4.13;;;3.30;;
59907;SDS011;61804;54.926;73.496;2023-05-07T11:57:32;2.78;;;2.47;;
59907;SDS011;61804;54.926;73.496;2023-05-07T12:00:01;4.78;;;3.88;;
59907;SDS011;61804;54.926;73.496;2023-05-07T12:02:40;10.60;;;4.38;;
59907;SDS011;61804;54.926;73.496;2023-05-07T12:05:09;16.63;;;10.57;;
59907;SDS011;61804;54.926;73.496;2023-05-07T12:07:37;10.10;;;8.68;;
59907;SDS011;61804;54.926;73.496;2023-05-07T12:10:05;12.90;;;5.18;;
59907;SDS011;61804;54.926;73.496;2023-05-07T12:12:40;24.70;;;22.20;;
59907;SDS011;61804;54.926;73.496;2023-05-07T12:15:08;6.30;;;4.95;;
59907;SDS011;61804;54.926;73.496;2023-05-07T12:17:39;20.65;;;5.72;;
59907;SDS011;61804;54.926;73.496;2023-05-07T12:20:07;17.45;;;4.45;;
59907;SDS011;61804;54.926;73.496;2023-05-07T12:22:35;16.85;;;4.25;;
59907;SDS011;61804;54.926;73.496;2023-05-07T12:25:02;12.52;;;4.57;;
59907;SDS011;61804;54.926;73.496;2023-05-07T12:27:31;17.90;;;5.47;;
59907;SDS011;61804;54.926;73.496;2023-05-07T12:29:58;6.93;;;4.20;;
59907;SDS011;61804;54.926;73.496;2023-05-07T12:32:26;5.55;;;4.20;;
59907;SDS011;61804;54.926;73.496;2023-05-07T12:34:53;21.15;;;4.88;;
59907;SDS011;61804;54.926;73.496;2023-05-07T12:37:24;4.25;;;3.28;;
59907;SDS011;61804;54.926;73.496;2023-05-07T12:40:06;11.48;;;4.18;;
59907;SDS011;61804;54.926;73.496;2023-05-07T12:42:38;11.73;;;5.47;;
59907;SDS011;61804;54.926;73.496;2023-05-07T12:45:12;8.48;;;3.75;;
59907;SDS011;61804;54.926;73.496;2023-05-07T12:47:43;6.38;;;2.65;;
59907;SDS011;61804;54.926;73.496;2023-05-07T12:50:10;19.40;;;17.33;;
59907;SDS011;61804;54.926;73.496;2023-05-07T12:52:38;3.55;;;3.22;;
59907;SDS011;61804;54.926;73.496;2023-05-07T12:55:06;6.00;;;5.32;;
59907;SDS011;61804;54.926;73.496;2023-05-07T12:57:38;6.80;;;3.58;;
59907;SDS011;61804;54.926;73.496;2023-05-07T13:00:07;6.63;;;4.63;;
59907;SDS011;61804;54.926;73.496;2023-05-07T13:02:38;11.85;;;5.72;;
59907;SDS011;61804;54.926;73.496;2023-05-07T13:05:08;6.93;;;3.17;;
59907;SDS011;61804;54.926;73.496;2023-05-07T13:07:36;7.47;;;5.35;;
59907;SDS011;61804;54.926;73.496;2023-05-07T13:10:04;14.40;;;10.73;;
59907;SDS011;61804;54.926;73.496;2023-05-07T13:12:32;22.65;;;10.55;;
59907;SDS011;61804;54.926;73.496;2023-05-07T13:15:00;31.90;;;21.55;;
59907;SDS011;61804;54.926;73.496;2023-05-07T13:17:28;22.52;;;14.05;;
59907;SDS011;61804;54.926;73.496;2023-05-07T13:19:58;5.18;;;4.65;;
59907;SDS011;61804;54.926;73.496;2023-05-07T13:22:25;16.65;;;5.65;;
59907;SDS011;61804;54.926;73.496;2023-05-07T13:24:53;7.30;;;6.68;;
59907;SDS011;61804;54.926;73.496;2023-05-07T13:27:20;11.77;;;10.50;;
59907;SDS011;61804;54.926;73.496;2023-05-07T13:29:48;23.33;;;15.55;;
59907;SDS011;61804;54.926;73.496;2023-05-07T13:32:17;10.32;;;7.63;;
59907;SDS011;61804;54.926;73.496;2023-05-07T13:34:45;9.23;;;7.97;;
59907;SDS011;61804;54.926;73.496;2023-05-07T13:37:15;15.65;;;7.90;;
59907;SDS011;61804;54.926;73.496;2023-05-07T13:39:43;17.10;;;7.00;;
59907;SDS011;61804;54.926;73.496;2023-05-07T13:42:12;15.55;;;6.72;;
59907;SDS011;61804;54.926;73.496;2023-05-07T13:44:40;66.50;;;43.08;;
59907;SDS011;61804;54.926;73.496;2023-05-07T13:47:08;40.88;;;26.15;;
59907;SDS011;61804;54.926;73.496;2023-05-07T13:49:37;55.28;;;30.58;;
59907;SDS011;61804;54.926;73.496;2023-05-07T13:52:05;37.17;;;21.73;;
59907;SDS011;61804;54.926;73.496;2023-05-07T13:54:33;45.20;;;33.58;;
59907;SDS011;61804;54.926;73.496;2023-05-07T13:57:01;64.75;;;41.15;;
59907;SDS011;61804;54.926;73.496;2023-05-07T13:59:30;39.45;;;25.95;;
59907;SDS011;61804;54.926;73.496;2023-05-07T14:01:57;39.90;;;25.40;;
59907;SDS011;61804;54.926;73.496;2023-05-07T14:04:25;27.80;;;16.92;;
59907;SDS011;61804;54.926;73.496;2023-05-07T14:06:53;19.02;;;13.50;;
59907;SDS011;61804;54.926;73.496;2023-05-07T14:09:20;19.60;;;10.90;;
59907;SDS011;61804;54.926;73.496;2023-05-07T14:11:48;32.47;;;22.38;;
59907;SDS011;61804;54.926;73.496;2023-05-07T14:14:18;34.28;;;22.40;;
59907;SDS011;61804;54.926;73.496;2023-05-07T14:16:45;40.28;;;26.75;;
59907;SDS011;61804;54.926;73.496;2023-05-07T14:19:13;43.40;;;26.73;;
59907;SDS011;61804;54.926;73.496;2023-05-07T14:21:41;40.13;;;26.38;;
59907;SDS011;61804;54.926;73.496;2023-05-07T14:24:12;43.25;;;27.25;;
59907;SDS011;61804;54.926;73.496;2023-05-07T14:26:40;20.90;;;14.95;;
59907;SDS011;61804;54.926;73.496;2023-05-07T14:29:08;16.38;;;11.43;;
59907;SDS011;61804;54.926;73.496;2023-05-07T14:31:37;18.10;;;12.27;;
59907;SDS011;61804;54.926;73.496;2023-05-07T14:34:06;49.97;;;30.20;;
59907;SDS011;61804;54.926;73.496;2023-05-07T14:36:34;33.70;;;25.23;;
59907;SDS011;61804;54.926;73.496;2023-05-07T14:39:15;66.20;;;47.55;;
59907;SDS011;61804;54.926;73.496;2023-05-07T14:41:42;67.70;;;49.47;;
59907;SDS011;61804;54.926;73.496;2023-05-07T14:44:10;42.50;;;33.05;;
59907;SDS011;61804;54.926;73.496;2023-05-07T14:46:37;31.92;;;22.77;;
59907;SDS011;61804;54.926;73.496;2023-05-07T14:49:06;25.10;;;14.75;;
59907;SDS011;61804;54.926;73.496;2023-05-07T14:51:43;18.25;;;12.05;;
59907;SDS011;61804;54.926;73.496;2023-05-07T14:54:13;19.10;;;11.77;;